createdAt,value
2024-01-16T00:02:30.395Z,-2.96
2024-01-16T00:06:33.292Z,-3.23
2024-01-16T00:10:37.571Z,-3.34
2024-01-16T00:14:40.558Z,-3.00
2024-01-16T00:18:43.562Z,-3.15
2024-01-16T00:22:46.329Z,-2.82
2024-01-16T00:26:51.156Z,-2.83
2024-01-16T00:30:53.936Z,-2.79
2024-01-16T00:34:56.800Z,-2.77
2024-01-16T00:38:59.662Z,-2.89
2024-01-16T00:43:03.848Z,-2.78
2024-01-16T00:47:06.963Z,-2.60
2024-01-16T00:51:09.889Z,-2.36
2024-01-16T00:55:12.956Z,-2.32
2024-01-16T00:59:17.248Z,-3.42
2024-01-16T01:03:26.033Z,-2.34
2024-01-16T01:07:28.829Z,-2.22
2024-01-16T01:11:31.671Z,-2.72
2024-01-16T01:15:35.882Z,-2.37
2024-01-16T01:19:38.655Z,-2.44
2024-01-16T01:23:41.566Z,-2.32
2024-01-16T01:27:44.492Z,-3.26
2024-01-16T01:31:51.519Z,-2.72
2024-01-16T01:35:54.547Z,-2.76
2024-01-16T01:39:57.467Z,-2.21
2024-01-16T01:44:00.563Z,-2.24
2024-01-16T01:48:08.168Z,-2.52
2024-01-16T01:52:11.267Z,-2.64
2024-01-16T01:56:17.063Z,-2.17
2024-01-16T02:00:20.085Z,-2.40
2024-01-16T02:04:24.545Z,-2.73
2024-01-16T02:08:28.474Z,-2.44
2024-01-16T02:12:31.311Z,-2.73
2024-01-16T02:16:38.278Z,-3.34
2024-01-16T02:20:42.510Z,-3.18
2024-01-16T02:24:46.743Z,-3.62
2024-01-16T02:28:49.536Z,-3.23
2024-01-16T02:32:52.533Z,-3.06
2024-01-16T02:36:55.480Z,-2.58
2024-01-16T02:40:59.644Z,-2.75
2024-01-16T02:45:06.353Z,-3.05
2024-01-16T02:49:09.799Z,-2.96
2024-01-16T02:53:12.708Z,-3.09
2024-01-16T02:57:16.887Z,-2.77
2024-01-16T03:01:20.815Z,-2.86
2024-01-16T03:05:23.644Z,-2.72
2024-01-16T03:09:29.638Z,-2.68
2024-01-16T03:13:33.886Z,-3.22
2024-01-16T03:17:36.982Z,-3.05
2024-01-16T03:21:39.946Z,-3.40
2024-01-16T03:25:42.732Z,-2.87
2024-01-16T03:29:48.049Z,-2.60
2024-01-16T03:33:50.974Z,-2.93
2024-01-16T03:37:53.791Z,-3.21
2024-01-16T03:41:56.586Z,-2.64
2024-01-16T03:46:00.931Z,-3.24
2024-01-16T03:50:11.492Z,-3.32
2024-01-16T03:54:14.570Z,-3.23
2024-01-16T03:58:17.402Z,-3.10
2024-01-16T04:02:21.620Z,-3.74
2024-01-16T04:06:24.636Z,-3.28
2024-01-16T04:10:32.540Z,-3.11
2024-01-16T04:14:35.357Z,-3.30
2024-01-16T04:18:42.104Z,-3.60
2024-01-16T04:22:45.030Z,-3.33
2024-01-16T04:26:47.883Z,-3.35
2024-01-16T04:30:50.697Z,-3.84
2024-01-16T04:34:54.901Z,-4.35
2024-01-16T04:39:00.009Z,-3.37
2024-01-16T04:43:08.787Z,-3.35
2024-01-16T04:47:11.648Z,-3.55
2024-01-16T04:51:15.905Z,-3.35
2024-01-16T04:55:18.818Z,-3.87
2024-01-16T04:59:29.600Z,-3.91
2024-01-16T05:03:32.371Z,-3.83
2024-01-16T05:07:37.136Z,-3.84
2024-01-16T05:11:39.741Z,-4.02
2024-01-16T05:15:43.262Z,-4.21
2024-01-16T05:19:53.398Z,-4.29
2024-01-16T05:23:57.627Z,-4.25
2024-01-16T05:28:00.383Z,-4.48
2024-01-16T05:32:03.203Z,-4.14
2024-01-16T05:36:06.313Z,-4.94
2024-01-16T05:40:17.395Z,-5.11
2024-01-16T05:44:20.105Z,-4.63
2024-01-16T05:48:22.914Z,-4.38
2024-01-16T05:52:26.153Z,-5.34
2024-01-16T05:56:35.445Z,-5.16
2024-01-16T06:00:39.106Z,-4.86
2024-01-16T06:04:49.942Z,-5.09
2024-01-16T06:08:52.837Z,-5.35
2024-01-16T06:12:57.003Z,-5.21
2024-01-16T06:16:59.749Z,-5.34
2024-01-16T06:21:03.660Z,-5.23
2024-01-16T06:25:07.452Z,-5.90
2024-01-16T06:29:21.409Z,-5.34
2024-01-16T06:33:31.296Z,-5.62
2024-01-16T06:37:34.197Z,-5.30
2024-01-16T06:41:36.958Z,-5.30
2024-01-16T06:45:41.184Z,-5.49
2024-01-16T06:49:43.982Z,-5.98
2024-01-16T06:53:47.208Z,-5.59
2024-01-16T06:57:50.429Z,-5.81
2024-01-16T07:01:55.860Z,-6.69
2024-01-16T07:05:59.060Z,-5.57
2024-01-16T07:10:02.183Z,-5.92
2024-01-16T07:14:06.019Z,-5.83
2024-01-16T07:18:11.024Z,-5.34
2024-01-16T07:22:17.073Z,-5.85
2024-01-16T07:26:19.835Z,-5.59
2024-01-16T07:30:22.808Z,-6.34
2024-01-16T07:34:35.064Z,-5.72
2024-01-16T07:38:38.972Z,-5.40
2024-01-16T07:42:42.192Z,-6.10
2024-01-16T07:46:47.067Z,-5.52
2024-01-16T07:50:51.059Z,-5.68
2024-01-16T07:54:53.844Z,-6.09
2024-01-16T07:58:56.754Z,-5.72
2024-01-16T08:02:59.767Z,-5.46
2024-01-16T08:07:04.214Z,-5.42
2024-01-16T08:11:09.227Z,-5.69
2024-01-16T08:15:12.229Z,-5.61
2024-01-16T08:19:16.258Z,-5.66
2024-01-16T08:23:22.574Z,-5.53
2024-01-16T08:27:26.523Z,-5.51
2024-01-16T08:31:36.569Z,-5.83
2024-01-16T08:35:39.544Z,-5.20
2024-01-16T08:39:51.881Z,-5.54
2024-01-16T08:43:55.589Z,-5.77
2024-01-16T08:48:01.120Z,-5.47
2024-01-16T08:52:05.666Z,-5.82
2024-01-16T08:56:13.425Z,-5.14
2024-01-16T09:00:16.928Z,-5.52
2024-01-16T09:04:19.929Z,-5.17
2024-01-16T09:08:23.802Z,-4.36
2024-01-16T09:12:28.664Z,-4.44
2024-01-16T09:16:34.832Z,-3.79
2024-01-16T09:20:49.752Z,-3.60
2024-01-16T09:24:53.689Z,-3.32
2024-01-16T09:29:03.819Z,-3.30
2024-01-16T09:33:08.228Z,-3.73
2024-01-16T09:37:11.145Z,-3.65
2024-01-16T09:41:23.687Z,-3.51
2024-01-16T09:45:31.711Z,-3.54
2024-01-16T09:49:34.675Z,-3.18
2024-01-16T09:53:39.927Z,-2.98
2024-01-16T09:57:43.848Z,-2.53
2024-01-16T10:01:48.370Z,-2.86
2024-01-16T10:05:51.521Z,-3.27
2024-01-16T10:09:54.676Z,-2.99
2024-01-16T10:14:00.687Z,-2.62
2024-01-16T10:18:06.478Z,-2.25
2024-01-16T10:22:09.459Z,-2.44
2024-01-16T10:26:13.818Z,-2.02
2024-01-16T10:30:16.974Z,-1.62
2024-01-16T10:34:25.631Z,-1.68
2024-01-16T10:38:28.693Z,-1.71
2024-01-16T10:42:31.738Z,-2.30
2024-01-16T10:46:34.694Z,-2.89
2024-01-16T10:50:41.459Z,-2.87
2024-01-16T10:54:45.982Z,-1.81
2024-01-16T10:58:56.281Z,-3.09
2024-01-16T11:03:02.595Z,-1.95
2024-01-16T11:07:07.743Z,-1.55
2024-01-16T11:11:19.274Z,-2.02
2024-01-16T11:15:24.903Z,-1.82
2024-01-16T11:19:38.923Z,-0.85
2024-01-16T11:23:53.749Z,-1.15
2024-01-16T11:28:10.942Z,-1.80
2024-01-16T11:32:39.545Z,-2.41
2024-01-16T11:37:02.053Z,-1.07
2024-01-16T11:41:13.877Z,-1.41
2024-01-16T11:45:49.914Z,-0.68
2024-01-16T11:49:53.880Z,-0.53
2024-01-16T11:53:58.193Z,-0.37
2024-01-16T11:58:23.148Z,-0.06
2024-01-16T12:02:32.020Z,-1.84
2024-01-16T12:06:41.694Z,-0.61
2024-01-16T12:10:48.846Z,-1.36
2024-01-16T12:14:56.548Z,-0.34
2024-01-16T12:19:07.209Z,-0.25
2024-01-16T12:23:23.271Z,-0.59
2024-01-16T12:27:32.474Z,-0.89
2024-01-16T12:31:43.781Z,-0.70
2024-01-16T12:35:52.753Z,-0.84
2024-01-16T12:39:55.693Z,-0.64
2024-01-16T12:44:04.926Z,-1.22
2024-01-16T12:48:25.466Z,-0.09
2024-01-16T12:52:31.198Z,-0.32
2024-01-16T12:56:38.395Z,-0.54
2024-01-16T13:00:42.192Z,0.54
2024-01-16T13:05:01.094Z,0.76
2024-01-16T13:09:16.359Z,0.48
2024-01-16T13:13:25.297Z,-0.27
2024-01-16T13:17:28.270Z,-0.03
2024-01-16T13:21:32.993Z,0.75
2024-01-16T13:25:36.019Z,0.27
2024-01-16T13:29:41.810Z,0.07
2024-01-16T13:33:52.391Z,0.39
2024-01-16T13:37:56.927Z,-0.83
2024-01-16T13:41:59.738Z,0.31
2024-01-16T13:46:18.705Z,0.28
2024-01-16T13:50:34.628Z,0.32
2024-01-16T13:54:41.753Z,-0.45
2024-01-16T13:58:46.734Z,-0.04
2024-01-16T14:02:52.266Z,-0.86
2024-01-16T14:07:10.314Z,-0.05
2024-01-16T14:11:33.390Z,-0.36
2024-01-16T14:15:41.795Z,-0.25
2024-01-16T14:19:46.847Z,-0.68
2024-01-16T14:23:50.270Z,-1.05
2024-01-16T14:28:00.784Z,-0.42
2024-01-16T14:32:09.102Z,-0.03
2024-01-16T14:36:19.656Z,-0.33
2024-01-16T14:40:26.664Z,-1.05
2024-01-16T14:44:44.460Z,-1.12
2024-01-16T14:48:48.058Z,-1.33
2024-01-16T14:52:52.774Z,-1.12
2024-01-16T14:56:57.171Z,-1.26
2024-01-16T15:01:02.829Z,-1.26
2024-01-16T15:05:19.745Z,-0.74
2024-01-16T15:09:22.863Z,-0.84
2024-01-16T15:13:39.540Z,-0.85
2024-01-16T15:17:46.047Z,-1.48
2024-01-16T15:21:49.231Z,-1.62
2024-01-16T15:25:52.156Z,-3.21
2024-01-16T15:29:59.490Z,-2.77
2024-01-16T15:34:12.152Z,-2.31
2024-01-16T15:38:18.672Z,-3.63
2024-01-16T15:42:27.132Z,-3.64
2024-01-16T15:46:58.253Z,-3.31
2024-01-16T15:51:08.247Z,-3.55
2024-01-16T15:55:15.478Z,-2.74
2024-01-16T15:59:24.430Z,-3.22
2024-01-16T16:03:27.959Z,-4.04
2024-01-16T16:07:33.588Z,-3.31
2024-01-16T16:11:39.758Z,-3.75
2024-01-16T16:16:00.147Z,-3.96
2024-01-16T16:20:11.300Z,-3.29
2024-01-16T16:24:40.447Z,-3.37
2024-01-16T16:28:51.305Z,-3.54
2024-01-16T16:33:02.215Z,-3.63
2024-01-16T16:37:11.051Z,-4.26
2024-01-16T16:41:21.672Z,-4.83
2024-01-16T16:45:26.657Z,-4.58
2024-01-16T16:49:36.716Z,-4.78
2024-01-16T16:53:47.068Z,-4.07
2024-01-16T16:57:57.929Z,-4.91
2024-01-16T17:02:09.058Z,-4.89
2024-01-16T17:06:12.114Z,-4.65
2024-01-16T17:10:14.989Z,-4.81
2024-01-16T17:14:19.739Z,-4.99
2024-01-16T17:18:39.489Z,-4.56
2024-01-16T17:22:53.305Z,-5.46
2024-01-16T17:26:56.353Z,-5.84
2024-01-16T17:31:08.343Z,-5.43
2024-01-16T17:35:19.594Z,-6.04
2024-01-16T17:39:26.506Z,-5.06
2024-01-16T17:43:35.826Z,-5.84
2024-01-16T17:47:48.419Z,-6.09
2024-01-16T17:52:00.179Z,-6.17
2024-01-16T17:56:03.630Z,-7.36
2024-01-16T18:00:10.366Z,-6.09
2024-01-16T18:04:14.627Z,-6.51
2024-01-16T18:08:18.385Z,-6.01
2024-01-16T18:12:22.542Z,-6.75
2024-01-16T18:16:27.686Z,-6.10
2024-01-16T18:20:32.784Z,-6.56
2024-01-16T18:24:38.512Z,-7.20
2024-01-16T18:28:41.699Z,-6.97
2024-01-16T18:32:45.319Z,-7.06
2024-01-16T18:36:50.709Z,-6.32
2024-01-16T18:40:53.755Z,-6.54
2024-01-16T18:44:56.591Z,-7.69
2024-01-16T18:49:00.150Z,-6.75
2024-01-16T18:53:04.900Z,-6.78
2024-01-16T18:57:08.492Z,-7.25
2024-01-16T19:01:12.534Z,-7.18
2024-01-16T19:05:18.023Z,-6.77
2024-01-16T19:09:36.963Z,-7.52
2024-01-16T19:13:40.548Z,-6.89
2024-01-16T19:17:43.509Z,-6.85
2024-01-16T19:21:47.743Z,-6.97
2024-01-16T19:25:52.674Z,-7.32
2024-01-16T19:29:55.482Z,-7.76
2024-01-16T19:33:58.722Z,-7.38
2024-01-16T19:38:01.857Z,-8.28
2024-01-16T19:42:06.526Z,-8.43
2024-01-16T19:46:09.749Z,-7.50
2024-01-16T19:50:21.622Z,-7.62
2024-01-16T19:54:26.815Z,-7.54
2024-01-16T19:58:31.676Z,-8.42
2024-01-16T20:02:41.375Z,-7.38
2024-01-16T20:06:45.951Z,-8.36
2024-01-16T20:10:48.775Z,-7.54
2024-01-16T20:14:53.973Z,-8.41
2024-01-16T20:18:57.179Z,-7.80
2024-01-16T20:23:00.532Z,-8.29
2024-01-16T20:27:04.021Z,-8.15
2024-01-16T20:31:09.243Z,-7.56
2024-01-16T20:35:13.286Z,-7.80
2024-01-16T20:39:19.205Z,-7.67
2024-01-16T20:43:22.001Z,-8.50
2024-01-16T20:47:26.327Z,-7.72
2024-01-16T20:51:29.958Z,-7.86
2024-01-16T20:55:32.950Z,-7.79
2024-01-16T20:59:37.115Z,-7.99
2024-01-16T21:03:41.257Z,-8.04
2024-01-16T21:07:44.638Z,-8.78
2024-01-16T21:11:47.980Z,-8.35
2024-01-16T21:15:50.837Z,-8.99
2024-01-16T21:19:55.029Z,-8.52
2024-01-16T21:23:57.793Z,-8.79
2024-01-16T21:28:01.023Z,-8.75
2024-01-16T21:32:05.808Z,-8.63
2024-01-16T21:36:11.891Z,-8.25
2024-01-16T21:40:14.818Z,-8.22
2024-01-16T21:44:17.578Z,-8.25
2024-01-16T21:48:28.088Z,-8.66
2024-01-16T21:52:33.928Z,-9.09
2024-01-16T21:56:37.179Z,-8.28
2024-01-16T22:00:39.987Z,-8.26
2024-01-16T22:04:43.193Z,-9.03
2024-01-16T22:08:57.496Z,-8.24
2024-01-16T22:13:00.744Z,-8.73
2024-01-16T22:17:03.484Z,-8.22
2024-01-16T22:21:08.053Z,-8.39
2024-01-16T22:25:12.393Z,-8.76
2024-01-16T22:29:15.393Z,-8.19
2024-01-16T22:33:18.241Z,-7.89
2024-01-16T22:37:21.072Z,-9.19
2024-01-16T22:41:25.280Z,-8.21
2024-01-16T22:45:28.186Z,-8.51
2024-01-16T22:49:30.988Z,-8.34
2024-01-16T22:53:33.864Z,-9.03
2024-01-16T22:57:38.018Z,-8.46
2024-01-16T23:01:48.357Z,-8.39
2024-01-16T23:05:51.108Z,-8.46
2024-01-16T23:09:56.580Z,-8.01
2024-01-16T23:14:01.656Z,-7.97
2024-01-16T23:18:07.036Z,-7.99
2024-01-16T23:22:09.921Z,-8.13
2024-01-16T23:26:12.769Z,-9.49
2024-01-16T23:30:17.183Z,-8.10
2024-01-16T23:34:19.981Z,-8.46
2024-01-16T23:38:22.816Z,-7.87
2024-01-16T23:42:27.057Z,-8.40
2024-01-16T23:46:31.131Z,-8.15
2024-01-16T23:50:35.069Z,-8.26
2024-01-16T23:54:38.341Z,-7.96
2024-01-16T23:58:41.048Z,-8.11
